Time;durP1;ratioP1;P1;durP2;ratioP2;P2;SDS_P1;SDS_P2;PMS_P1;PMS_P2;Temp;Humidity;BMP_temperature;BMP_pressure;BME280_temperature;BME280_humidity;BME280_pressure;Samples;Min_cycle;Max_cycle;Signal;HPM_P1;HPM_P2
2021/12/23 00:01:40;;;;;;;24.85;17.90;;;;;;;-2.81;88.28;100073.83;1698371;83;21461;-70
2021/12/23 00:04:12;;;;;;;31.37;19.62;;;;;;;-2.79;88.28;100069.61;1693391;83;21680;-69
2021/12/23 00:06:39;;;;;;;28.87;19.82;;;;;;;-2.80;88.28;100066.59;1667126;86;21095;-70
2021/12/23 00:09:06;;;;;;;28.77;17.77;;;;;;;-2.80;88.28;100066.59;1660677;85;24677;-70
2021/12/23 00:11:32;;;;;;;29.63;18.90;;;;;;;-2.80;88.33;100064.03;1698472;83;20898;-69
2021/12/23 00:14:07;;;;;;;28.52;19.50;;;;;;;-2.76;88.47;100060.70;1653033;84;20976;-69
2021/12/23 00:16:47;;;;;;;28.80;18.73;;;;;;;-2.77;88.32;100063.67;1695827;84;20945;-70
2021/12/23 00:19:36;;;;;;;30.85;18.80;;;;;;;-2.79;88.28;100056.83;1694252;84;21235;-70
2021/12/23 00:24:38;;;;;;;30.52;19.32;;;;;;;-2.81;88.29;100053.39;1651801;85;20906;-70
2021/12/23 00:27:06;;;;;;;27.13;19.15;;;;;;;-2.79;88.37;100048.73;1652027;85;20985;-70
2021/12/23 00:29:33;;;;;;;28.12;17.73;;;;;;;-2.79;88.35;100049.16;1699990;84;20937;-70
2021/12/23 00:32:04;;;;;;;28.15;19.48;;;;;;;-2.80;88.36;100037.20;1649924;85;21868;-70
2021/12/23 00:34:28;;;;;;;31.05;21.02;;;;;;;-2.84;88.27;100035.47;1680212;84;20945;-69
2021/12/23 00:36:57;;;;;;;25.20;18.07;;;;;;;-2.85;88.29;100034.61;1654779;85;21041;-70
2021/12/23 00:39:23;;;;;;;25.10;17.70;;;;;;;-2.84;88.35;100030.35;1693026;83;20926;-70
2021/12/23 00:41:51;;;;;;;24.18;18.05;;;;;;;-2.87;88.30;100029.05;1696044;83;20941;-70
2021/12/23 00:44:18;;;;;;;27.37;18.85;;;;;;;-2.89;88.33;100025.60;1695040;83;21016;-70
2021/12/23 00:46:45;;;;;;;25.27;18.65;;;;;;;-2.93;88.37;100014.07;1672539;84;20993;-70
2021/12/23 00:49:11;;;;;;;26.85;19.37;;;;;;;-2.92;88.37;100014.92;1659949;84;20945;-69
2021/12/23 00:51:38;;;;;;;27.60;18.30;;;;;;;-2.94;88.33;100004.70;1668395;84;21053;-70
2021/12/23 00:54:05;;;;;;;28.97;18.10;;;;;;;-2.93;88.49;99995.34;1693782;83;20954;-70
2021/12/23 00:56:35;;;;;;;26.93;18.73;;;;;;;-2.94;88.40;99997.03;1685904;83;21976;-69
2021/12/23 00:59:09;;;;;;;28.57;19.55;;;;;;;-2.96;88.41;99992.75;1679910;84;21478;-70
2021/12/23 01:01:36;;;;;;;26.20;18.25;;;;;;;-2.99;88.40;99993.56;1680372;84;20964;-70
2021/12/23 01:04:02;;;;;;;32.88;20.88;;;;;;;-2.96;88.53;99991.05;1683230;83;21493;-70
2021/12/23 01:06:29;;;;;;;31.80;19.23;;;;;;;-2.94;88.63;99999.59;1670406;84;20924;-70
2021/12/23 01:08:55;;;;;;;27.58;17.95;;;;;;;-2.93;88.52;99995.34;1656685;85;21969;-69
2021/12/23 01:11:24;;;;;;;27.33;17.93;;;;;;;-2.96;88.45;99991.05;1689720;84;20933;-70
2021/12/23 01:14:03;;;;;;;30.50;20.32;;;;;;;-2.96;88.45;99988.91;1686578;84;21006;-70
2021/12/23 01:16:49;;;;;;;;;;;;;;;-2.96;88.52;99988.91;1687618;84;21044;-69
2021/12/23 01:19:11;;;;;;;;;;;;;;;-2.97;88.54;99986.78;1691362;84;20226;-70
2021/12/23 01:21:33;;;;;;;24.40;17.87;;;;;;;-2.93;88.68;99970.63;1688855;84;21953;-70
2021/12/23 01:28:39;;;;;;;29.92;19.10;;;;;;;-2.85;88.63;99957.95;1849461;75;21961;-68
2021/12/23 01:31:06;;;;;;;29.17;19.30;;;;;;;-2.92;88.61;99968.50;1827336;76;20998;-69
2021/12/23 01:33:33;;;;;;;29.67;17.45;;;;;;;-2.90;88.64;99958.74;1827745;76;21302;-68
2021/12/23 01:35:59;;;;;;;25.80;19.40;;;;;;;-2.93;88.51;99960.41;1822409;77;21013;-69
2021/12/23 01:38:26;;;;;;;25.13;17.70;;;;;;;-2.95;88.52;99962.09;1818758;77;21091;-68
2021/12/23 01:40:53;;;;;;;25.62;18.40;;;;;;;-2.94;88.54;99960.38;1821105;76;21048;-68
2021/12/23 01:43:20;;;;;;;25.97;17.30;;;;;;;-2.95;88.50;99959.53;1826581;76;21527;-69
2021/12/23 01:45:50;;;;;;;28.25;17.80;;;;;;;-2.94;88.59;99951.05;1816094;77;21241;-68
2021/12/23 01:51:43;;;;;;;26.65;18.12;;;;;;;-2.95;88.55;99944.20;1785680;77;20937;-68
2021/12/23 01:54:09;;;;;;;27.15;17.10;;;;;;;-2.96;88.64;99941.22;1822665;76;21008;-69
2021/12/23 01:56:36;;;;;;;25.73;18.17;;;;;;;-2.94;88.61;99942.50;1825220;77;21552;-68
2021/12/23 01:59:03;;;;;;;25.62;17.55;;;;;;;-2.95;88.60;99932.70;1819953;77;21185;-68
2021/12/23 02:01:29;;;;;;;26.03;17.30;;;;;;;-2.96;88.56;99928.88;1779157;79;20934;-69
2021/12/23 02:03:56;;;;;;;25.48;16.55;;;;;;;-2.97;88.57;99925.47;1776603;78;21466;-68
2021/12/23 02:06:22;;;;;;;23.57;16.93;;;;;;;-2.97;88.56;99917.80;1782127;79;20893;-68
2021/12/23 02:08:49;;;;;;;24.82;17.92;;;;;;;-2.99;88.50;99910.95;1781864;78;21083;-68
2021/12/23 02:11:16;;;;;;;28.83;18.23;;;;;;;-3.00;88.53;99916.89;1803554;78;21964;-68
2021/12/23 02:13:43;;;;;;;27.93;18.27;;;;;;;-3.01;88.54;99908.38;1788271;78;20926;-68
2021/12/23 02:16:09;;;;;;;26.53;17.23;;;;;;;-3.00;88.56;99907.52;1801759;78;21028;-68
2021/12/23 02:18:36;;;;;;;28.23;16.53;;;;;;;-2.99;88.59;99901.59;1787009;78;21504;-68
2021/12/23 02:21:06;;;;;;;24.35;15.95;;;;;;;-2.98;88.57;99894.35;1773815;78;20983;-68
2021/12/23 02:23:34;;;;;;;23.75;17.57;;;;;;;-3.00;88.51;99894.75;1804096;78;21113;-66
2021/12/23 02:26:01;;;;;;;26.05;17.70;;;;;;;-2.99;88.60;99886.27;1795444;78;21458;-68
2021/12/23 02:28:28;;;;;;;24.70;15.80;;;;;;;-2.97;88.53;99884.59;1756187;80;20908;-68
2021/12/23 02:30:55;;;;;;;22.40;16.40;;;;;;;-2.94;88.60;99885.89;1805673;78;20949;-68
2021/12/23 02:33:25;;;;;;;24.80;17.52;;;;;;;-2.95;88.55;99871.38;1783004;78;20946;-68
2021/12/23 02:35:56;;;;;;;23.77;16.42;;;;;;;-2.95;88.52;99868.83;1788587;78;21495;-67
2021/12/23 02:38:24;;;;;;;22.75;15.60;;;;;;;-2.94;88.53;99865.45;1776082;79;20958;-68
2021/12/23 02:40:50;;;;;;;;;;;;;;;-2.96;88.49;99868.41;1767019;80;20897;-68
2021/12/23 02:43:22;;;;;;;21.23;16.50;;;;;;;-2.95;88.56;99861.16;1770708;79;20130;-68
2021/12/23 02:45:54;;;;;;;22.93;15.78;;;;;;;-2.99;88.46;99863.27;1780860;80;21000;-68
2021/12/23 02:48:25;;;;;;;29.02;17.57;;;;;;;-3.00;88.49;99858.98;1777311;78;21057;-68
2021/12/23 02:50:55;;;;;;;25.68;15.75;;;;;;;-2.99;88.61;99847.94;1770474;78;20909;-68
2021/12/23 02:53:22;;;;;;;24.20;16.32;;;;;;;-2.98;88.61;99849.64;1770690;80;20950;-68
2021/12/23 02:55:50;;;;;;;23.52;17.00;;;;;;;-3.01;88.46;99842.38;1786569;78;20914;-68
2021/12/23 02:58:16;;;;;;;23.25;16.77;;;;;;;-3.04;88.40;99841.92;1771383;78;21041;-68
2021/12/23 03:00:46;;;;;;;26.60;18.62;;;;;;;-3.04;88.51;99834.27;1774320;79;21088;-68
2021/12/23 03:03:13;;;;;;;24.57;16.97;;;;;;;-3.04;88.53;99831.70;1767147;79;20919;-68
2021/12/23 03:05:40;;;;;;;26.27;15.67;;;;;;;-3.04;88.48;99824.05;1760868;79;21082;-68
2021/12/23 03:08:06;;;;;;;23.17;16.50;;;;;;;-3.05;88.40;99818.91;1769389;79;20911;-68
2021/12/23 03:10:33;;;;;;;22.10;16.83;;;;;;;-3.10;88.30;99816.33;1791433;78;20925;-68
2021/12/23 03:13:00;;;;;;;24.90;18.20;;;;;;;-3.11;88.38;99817.16;1792824;78;21842;-68
2021/12/23 03:15:30;;;;;;;19.25;14.30;;;;;;;-3.13;88.29;99803.53;1803277;78;20919;-68
2021/12/23 03:17:55;;;;;;;24.80;16.17;;;;;;;-3.12;88.31;99807.79;1790860;78;21017;-68
2021/12/23 03:20:24;;;;;;;25.72;17.20;;;;;;;-3.10;88.28;99801.00;1792542;78;20981;-68
2021/12/23 03:22:58;;;;;;;22.73;16.90;;;;;;;-3.08;88.24;99799.33;1785995;78;20928;-68
2021/12/23 03:25:25;;;;;;;25.02;17.42;;;;;;;-3.10;88.23;99792.06;1783412;78;21247;-68
2021/12/23 03:27:58;;;;;;;25.95;17.02;;;;;;;-3.12;88.30;99780.97;1797096;78;20986;-68
2021/12/23 03:30:25;;;;;;;26.95;17.62;;;;;;;-3.11;88.29;99784.38;1777437;79;21533;-68
2021/12/23 03:32:52;;;;;;;21.37;15.60;;;;;;;-3.15;88.20;99772.01;1773655;79;21057;-68
2021/12/23 03:35:19;;;;;;;27.48;17.67;;;;;;;-3.17;88.20;99773.69;1809274;77;21015;-68
2021/12/23 03:37:46;;;;;;;22.75;14.65;;;;;;;-3.19;88.21;99771.13;1808762;77;22172;-68
2021/12/23 03:40:13;;;;;;;25.62;17.23;;;;;;;-3.19;88.30;99770.28;1817737;77;21462;-68
2021/12/23 03:42:40;;;;;;;23.22;16.52;;;;;;;-3.21;88.28;99763.02;1806845;77;20952;-68
2021/12/23 03:45:08;;;;;;;25.00;15.70;;;;;;;-3.22;88.28;99762.56;1805411;77;20888;-68
2021/12/23 03:47:36;;;;;;;26.80;17.50;;;;;;;-3.24;88.23;99766.83;1760856;79;21384;-68
2021/12/23 03:50:05;;;;;;;23.50;16.70;;;;;;;-3.26;88.23;99759.56;1745415;80;21950;-68
2021/12/23 03:52:33;;;;;;;27.27;16.95;;;;;;;-3.26;88.23;99752.75;1760585;80;21949;-68
2021/12/23 03:55:01;;;;;;;25.75;16.37;;;;;;;-3.27;88.21;99747.65;1741494;80;21114;-68
2021/12/23 03:57:27;;;;;;;30.20;17.60;;;;;;;-3.26;88.24;99741.69;1739564;80;20981;-68
2021/12/23 03:59:54;;;;;;;22.65;16.17;;;;;;;-3.28;88.10;99740.81;1702515;81;21054;-68
2021/12/23 04:02:21;;;;;;;25.97;18.82;;;;;;;-3.29;88.10;99740.39;1788454;77;21911;-68
2021/12/23 04:04:47;;;;;;;25.92;15.93;;;;;;;-3.29;88.14;99737.84;1800762;77;20955;-68
2021/12/23 04:07:16;;;;;;;23.55;16.93;;;;;;;-3.31;88.05;99734.41;1808076;77;20955;-68
2021/12/23 04:09:42;;;;;;;26.55;17.60;;;;;;;-3.31;88.13;99736.95;1800143;77;20951;-69
2021/12/23 04:12:10;;;;;;;33.38;20.55;;;;;;;-3.33;88.13;99726.75;1815231;77;21520;-68
2021/12/23 04:14:36;;;;;;;;;;;;;;;-3.33;88.15;99720.76;1813934;77;21083;-68
2021/12/23 04:17:03;;;;;;;32.53;18.98;;;;;;;-3.32;88.13;99713.55;1804264;77;20438;-69
2021/12/23 04:19:31;;;;;;;32.05;19.00;;;;;;;-3.35;88.10;99708.00;1803415;77;20946;-68
2021/12/23 04:21:59;;;;;;;26.52;16.80;;;;;;;-3.34;88.19;99711.40;1772098;79;20947;-68
2021/12/23 04:24:26;;;;;;;26.62;18.23;;;;;;;-3.33;88.18;99716.53;1741745;80;21057;-68
2021/12/23 04:26:53;;;;;;;26.05;17.90;;;;;;;-3.33;88.23;99707.59;1735598;80;21470;-68
2021/12/23 04:29:20;;;;;;;24.50;17.98;;;;;;;-3.40;88.28;99690.08;1742977;80;20899;-69
2021/12/23 04:31:46;;;;;;;22.83;16.60;;;;;;;-3.30;88.26;99702.94;1722691;80;20919;-68
2021/12/23 04:34:13;;;;;;;28.90;17.85;;;;;;;-3.25;88.27;99698.70;1737591;79;20934;-67
2021/12/23 04:36:40;;;;;;;19.45;15.35;;;;;;;-3.25;88.14;99698.70;1736846;80;20896;-68
2021/12/23 04:39:07;;;;;;;24.97;17.10;;;;;;;-3.27;88.12;99696.16;1711247;81;21057;-68
2021/12/23 04:41:34;;;;;;;28.17;18.92;;;;;;;-3.26;88.09;99691.89;1727210;81;20950;-68
2021/12/23 04:44:00;;;;;;;27.73;17.73;;;;;;;-3.27;88.08;99695.30;1734988;80;20864;-68
2021/12/23 04:46:27;;;;;;;22.27;15.90;;;;;;;-3.26;88.03;99686.79;1730039;80;20980;-68
2021/12/23 04:48:54;;;;;;;25.82;17.37;;;;;;;-3.25;88.02;99683.38;1746898;80;20887;-68
2021/12/23 04:51:21;;;;;;;25.00;17.73;;;;;;;-3.27;87.97;99682.53;1735188;80;22217;-68
2021/12/23 04:53:48;;;;;;;29.80;19.15;;;;;;;-3.27;88.02;99681.26;1741456;80;22212;-68
2021/12/23 04:56:16;;;;;;;28.45;18.82;;;;;;;-3.27;88.07;99677.43;1754638;80;21084;-68
2021/12/23 04:58:44;;;;;;;32.42;21.27;;;;;;;-3.26;87.98;99672.31;1767453;79;21491;-68
2021/12/23 05:01:28;;;;;;;25.20;17.52;;;;;;;-3.26;87.83;99671.47;1743948;80;21089;-68
2021/12/23 05:03:47;;;;;;;30.27;18.48;;;;;;;-3.27;87.83;99671.05;1806863;77;21437;-68
2021/12/23 05:06:16;;;;;;;25.95;17.23;;;;;;;-3.27;87.90;99668.06;1812792;77;20958;-68
2021/12/23 05:08:43;;;;;;;28.05;18.62;;;;;;;-3.32;87.93;99658.66;1814087;77;21025;-68
2021/12/23 05:11:10;;;;;;;;;;;;;;;-3.34;88.00;99655.23;1822052;77;20914;-68
2021/12/23 05:13:37;;;;;;;27.98;18.25;;;;;;;-3.37;87.95;99644.14;1815433;77;20224;-68
2021/12/23 05:16:04;;;;;;;25.27;16.87;;;;;;;-3.35;88.04;99638.21;1771005;79;21911;-68
2021/12/23 05:18:31;;;;;;;29.23;19.42;;;;;;;-3.34;88.00;99643.73;1807793;77;24196;-68
2021/12/23 05:20:58;;;;;;;31.25;19.25;;;;;;;-3.37;87.90;99636.48;1809176;77;20938;-68
2021/12/23 05:23:24;;;;;;;22.03;17.00;;;;;;;-3.37;87.89;99620.31;1815389;77;20976;-68
2021/12/23 05:25:51;;;;;;;25.80;18.23;;;;;;;-3.37;87.82;99626.27;1796866;77;20903;-68
2021/12/23 05:28:18;;;;;;;26.30;18.37;;;;;;;-3.38;87.83;99625.85;1774146;77;21126;-67
2021/12/23 05:30:44;;;;;;;25.20;17.12;;;;;;;-3.37;87.75;99628.82;1802630;77;20918;-69
2021/12/23 05:33:11;;;;;;;24.00;17.67;;;;;;;-3.35;87.84;99620.34;1810674;77;20966;-68
2021/12/23 05:35:38;;;;;;;25.93;17.87;;;;;;;-3.38;87.91;99613.08;1803452;77;21461;-68
2021/12/23 05:38:05;;;;;;;25.32;17.00;;;;;;;-3.38;87.83;99604.15;1810604;77;20861;-68
2021/12/23 05:40:32;;;;;;;28.80;17.97;;;;;;;-3.41;87.74;99613.06;1800734;77;21493;-68
2021/12/23 05:42:59;;;;;;;33.50;19.10;;;;;;;-3.41;87.75;99616.89;1806156;77;20911;-68
2021/12/23 05:45:26;;;;;;;26.47;19.03;;;;;;;-3.42;87.70;99604.98;1807650;77;21671;-68
2021/12/23 05:47:53;;;;;;;31.60;19.85;;;;;;;-3.43;87.80;99607.52;1742069;80;20962;-68
2021/12/23 05:50:23;;;;;;;27.05;18.17;;;;;;;-3.44;87.77;99601.56;1763606;79;20981;-68
2021/12/23 05:52:50;;;;;;;29.70;19.02;;;;;;;-3.43;87.93;99595.59;1750337;80;21093;-68
2021/12/23 05:55:18;;;;;;;27.27;18.65;;;;;;;-3.41;87.86;99591.36;1740969;80;23752;-68
2021/12/23 05:57:45;;;;;;;28.90;19.07;;;;;;;-3.44;87.77;99587.52;1766061;79;20946;-68
2021/12/23 06:00:22;;;;;;;29.63;19.40;;;;;;;-3.45;87.84;99578.12;1783659;77;20919;-68
2021/12/23 06:02:51;;;;;;;30.95;19.40;;;;;;;-3.44;87.78;99586.23;1813733;77;24872;-68
2021/12/23 06:05:18;;;;;;;30.23;18.23;;;;;;;-3.46;87.83;99582.81;1815067;77;21932;-70
2021/12/23 06:07:46;;;;;;;25.12;17.55;;;;;;;-3.45;87.90;99583.23;1809357;77;20913;-69
2021/12/23 06:10:14;;;;;;;;;;;;;;;-3.43;87.88;99580.28;1815152;77;21414;-69
2021/12/23 06:12:41;;;;;;;30.57;19.10;;;;;;;-3.43;87.83;99582.83;1816193;77;20113;-69
2021/12/23 06:15:11;;;;;;;;;;;;;;;-3.42;87.89;99583.28;1808892;77;20917;-69
2021/12/23 06:17:39;;;;;;;28.73;18.15;;;;;;;-3.45;87.75;99581.95;1821155;77;21115;-70
2021/12/23 06:20:07;;;;;;;;;;;;;;;-3.48;87.78;99579.39;1818719;77;21124;-69
2021/12/23 06:22:36;;;;;;;29.40;18.57;;;;;;;-3.48;87.82;99575.56;1810225;77;20127;-70
2021/12/23 06:25:12;;;;;;;30.45;20.05;;;;;;;-3.48;87.79;99571.73;1813508;77;21048;-70
2021/12/23 06:27:41;;;;;;;31.00;19.70;;;;;;;-3.44;87.86;99573.48;1811717;77;20915;-69
2021/12/23 06:30:18;;;;;;;30.10;18.95;;;;;;;-3.43;87.68;99554.75;1798265;78;21171;-70
2021/12/23 06:32:50;;;;;;;30.70;19.50;;;;;;;-3.43;87.64;99544.55;1807685;77;20907;-70
2021/12/23 06:35:22;;;;;;;32.80;20.95;;;;;;;-3.44;87.60;99547.95;1792034;77;21463;-69
2021/12/23 06:37:49;;;;;;;41.83;22.82;;;;;;;-3.42;87.65;99559.03;1812828;77;20967;-69
2021/12/23 06:40:16;;;;;;;31.65;20.88;;;;;;;-3.41;87.62;99560.73;1814114;77;20974;-70
2021/12/23 06:42:43;;;;;;;36.40;20.43;;;;;;;-3.39;87.68;99556.50;1810223;77;21548;-69
2021/12/23 06:45:11;;;;;;;31.73;20.65;;;;;;;-3.41;87.50;99555.62;1811703;77;26620;-70
2021/12/23 06:47:38;;;;;;;29.42;21.68;;;;;;;-3.44;87.47;99553.05;1816955;77;20853;-70
2021/12/23 06:50:07;;;;;;;32.85;19.35;;;;;;;-3.46;87.45;99552.19;1807699;77;20928;-70
2021/12/23 06:52:37;;;;;;;29.75;19.30;;;;;;;-3.49;87.42;99547.06;1811592;77;20938;-70
2021/12/23 06:55:07;;;;;;;33.35;20.08;;;;;;;-3.48;87.44;99553.86;1820306;77;21182;-70
2021/12/23 06:57:34;;;;;;;32.83;21.65;;;;;;;-3.46;87.55;99550.91;1760011;79;20991;-70
2021/12/23 07:00:02;;;;;;;31.33;20.90;;;;;;;-3.45;87.54;99544.95;1810159;77;20952;-69
2021/12/23 07:02:29;;;;;;;36.48;21.30;;;;;;;-3.45;87.46;99541.12;1804731;77;21093;-70
2021/12/23 07:04:55;;;;;;;36.20;22.67;;;;;;;-3.46;87.34;99544.53;1807283;77;20923;-70
2021/12/23 07:07:30;;;;;;;30.23;20.85;;;;;;;-3.47;87.44;99540.28;1800519;77;21895;-69
2021/12/23 07:09:56;;;;;;;31.23;19.37;;;;;;;-3.49;87.37;99532.17;1811708;77;21424;-69
2021/12/23 07:12:24;;;;;;;34.55;22.27;;;;;;;-3.49;87.41;99534.73;1804095;77;20943;-69
2021/12/23 07:14:51;;;;;;;32.45;22.00;;;;;;;-3.50;87.36;99529.17;1814933;77;21448;-68
2021/12/23 07:17:17;;;;;;;38.40;24.67;;;;;;;-3.49;87.42;99531.75;1804698;77;21025;-70
2021/12/23 07:19:50;;;;;;;32.48;21.97;;;;;;;-3.48;87.44;99528.34;1813062;77;21071;-69
2021/12/23 07:22:15;;;;;;;34.20;22.95;;;;;;;-3.43;87.51;99528.37;1797386;77;20905;-68
2021/12/23 07:24:42;;;;;;;38.50;25.08;;;;;;;-3.37;87.67;99530.96;1785834;77;21003;-70
2021/12/23 07:27:27;;;;;;;39.07;25.00;;;;;;;-3.32;87.60;99533.55;1814783;77;20928;-69
2021/12/23 07:29:53;;;;;;;38.80;24.55;;;;;;;-3.28;87.65;99525.05;1805111;77;20883;-69
2021/12/23 07:32:20;;;;;;;43.75;24.15;;;;;;;-3.25;87.48;99524.67;1802998;77;22319;-68
2021/12/23 07:34:46;;;;;;;37.20;24.77;;;;;;;-3.24;87.42;99530.63;1813272;77;20892;-70
2021/12/23 07:37:14;;;;;;;38.02;25.55;;;;;;;-3.21;87.53;99526.80;1801924;77;21360;-70
2021/12/23 07:39:41;;;;;;;37.48;25.85;;;;;;;-3.16;87.63;99531.52;1795290;77;21738;-70
2021/12/23 07:45:39;;;;;;;31.60;21.27;;;;;;;-3.08;87.51;99523.47;1743993;81;20967;-66
2021/12/23 07:48:06;;;;;;;41.00;24.45;;;;;;;-3.00;87.46;99514.11;1740432;80;20986;-70
2021/12/23 07:50:33;;;;;;;40.30;27.58;;;;;;;-3.02;87.23;99509.44;1731502;81;21506;-70
2021/12/23 07:53:00;;;;;;;38.20;25.20;;;;;;;-2.99;87.40;99503.06;1738271;80;20958;-70
2021/12/23 07:55:27;;;;;;;37.67;22.65;;;;;;;-2.94;87.35;99506.50;1737659;80;21534;-70
2021/12/23 07:57:54;;;;;;;38.30;24.35;;;;;;;-2.94;87.27;99498.83;1740679;80;21684;-70
2021/12/23 08:00:21;;;;;;;40.30;26.23;;;;;;;-2.95;87.19;99497.11;1729353;81;21087;-70
2021/12/23 08:02:48;;;;;;;37.00;24.17;;;;;;;-2.89;87.43;99497.98;1729737;81;20998;-69
2021/12/23 08:05:14;;;;;;;36.73;21.20;;;;;;;-2.83;87.29;99497.99;1750403;80;21023;-69
2021/12/23 08:07:41;;;;;;;38.30;25.17;;;;;;;-2.80;87.31;99483.55;1735252;81;20935;-70
2021/12/23 08:10:09;;;;;;;44.38;25.97;;;;;;;-2.75;87.23;99483.54;1740450;81;21097;-70
2021/12/23 08:12:45;;;;;;;40.43;25.32;;;;;;;-2.76;87.11;99479.29;1741116;80;21054;-69
2021/12/23 08:15:08;;;;;;;38.75;24.57;;;;;;;-2.75;87.10;99473.32;1735499;80;22141;-69
2021/12/23 08:17:35;;;;;;;31.27;22.30;;;;;;;-2.72;87.15;99470.77;1737902;81;21389;-69
2021/12/23 08:20:03;;;;;;;38.42;23.62;;;;;;;-2.69;87.10;99460.55;1732851;81;20931;-70
2021/12/23 08:22:30;;;;;;;41.53;26.55;;;;;;;-2.67;87.04;99458.86;1777997;77;21166;-73
2021/12/23 08:24:59;;;;;;;37.08;24.45;;;;;;;-2.65;86.98;99464.83;1810917;77;20910;-72
2021/12/23 08:27:42;;;;;;;38.85;24.50;;;;;;;-2.64;86.94;99458.86;1811865;77;21927;-72
2021/12/23 08:30:09;;;;;;;39.67;23.90;;;;;;;-2.60;87.06;99450.36;1804891;77;20907;-72
2021/12/23 08:32:37;;;;;;;38.95;24.23;;;;;;;-2.55;86.98;99452.51;1813961;77;20995;-73
2021/12/23 08:35:04;;;;;;;33.30;23.00;;;;;;;-2.49;87.06;99445.27;1814817;77;21068;-73
2021/12/23 08:37:35;;;;;;;33.53;22.17;;;;;;;-2.47;86.94;99444.39;1806871;77;21640;-74
2021/12/23 08:40:09;;;;;;;33.95;22.98;;;;;;;-2.44;86.92;99445.25;1803678;77;21452;-73
2021/12/23 08:42:38;;;;;;;35.33;24.75;;;;;;;-2.41;87.03;99432.47;1799166;77;20997;-72
2021/12/23 08:45:07;;;;;;;32.28;22.05;;;;;;;-2.35;86.93;99436.30;1746622;79;20948;-73
2021/12/23 08:47:35;;;;;;;36.30;21.82;;;;;;;-2.30;86.86;99435.88;1769758;79;21449;-73
2021/12/23 08:50:06;;;;;;;35.43;21.25;;;;;;;-2.31;86.67;99436.75;1738140;80;20911;-72
2021/12/23 08:52:33;;;;;;;38.13;24.45;;;;;;;-2.25;86.85;99427.79;1771813;78;20890;-73
2021/12/23 08:55:02;;;;;;;39.03;22.25;;;;;;;-2.18;86.87;99429.94;1795066;77;20950;-73
2021/12/23 08:57:29;;;;;;;37.05;23.77;;;;;;;-2.07;87.08;99425.23;1811672;77;20898;-73
2021/12/23 08:59:57;;;;;;;35.30;23.32;;;;;;;-1.99;86.97;99415.40;1803829;77;21086;-73
2021/12/23 09:05:20;;;;;;;38.65;23.22;;;;;;;-1.82;86.91;99405.98;1727244;80;21591;-73
2021/12/23 09:07:49;;;;;;;33.25;24.02;;;;;;;-1.72;86.78;99401.70;1729536;80;21085;-73
2021/12/23 09:10:17;;;;;;;37.50;23.47;;;;;;;-1.67;86.92;99398.27;1740585;80;20964;-73
2021/12/23 09:12:45;;;;;;;;;;;;;;;-1.62;86.83;99390.16;1732055;80;21345;-74
2021/12/23 09:15:12;;;;;;;37.20;23.55;;;;;;;-1.55;86.77;99391.41;1736980;79;20468;-72
2021/12/23 09:17:40;;;;;;;38.25;24.23;;;;;;;-1.52;86.65;99388.84;1724606;80;21034;-73
2021/12/23 09:20:10;;;;;;;36.65;23.50;;;;;;;-1.49;86.74;99393.94;1739224;80;20900;-72
2021/12/23 09:22:38;;;;;;;37.23;24.07;;;;;;;-1.47;86.42;99389.67;1709007;80;21050;-71
2021/12/23 09:25:18;;;;;;;36.85;24.23;;;;;;;-1.46;86.53;99386.24;1727005;80;21154;-71
2021/12/23 09:33:02;;;;;;;34.03;23.95;;;;;;;-1.25;86.67;99368.23;1732633;80;20941;-73
2021/12/23 09:35:30;;;;;;;39.08;26.25;;;;;;;-1.18;86.85;99364.76;1726279;80;21065;-74
2021/12/23 09:37:58;;;;;;;34.40;24.07;;;;;;;-1.15;86.78;99362.20;1725392;80;21559;-72
2021/12/23 09:40:26;;;;;;;35.83;22.93;;;;;;;-1.04;87.06;99361.27;1732371;80;21112;-73
2021/12/23 09:42:53;;;;;;;34.20;24.85;;;;;;;-0.97;86.87;99355.26;1775331;77;20958;-74
2021/12/23 09:45:20;;;;;;;33.45;22.70;;;;;;;-0.90;86.88;99347.94;1801770;77;20944;-74
2021/12/23 09:47:48;;;;;;;;;;;;;;;-0.94;86.34;99339.86;1792129;78;21021;-73
2021/12/23 09:50:20;;;;;;;31.97;22.02;;;;;;;-1.02;86.13;99339.91;1796927;77;20919;-75
2021/12/23 09:52:52;;;;;;;35.60;24.20;;;;;;;-1.06;86.17;99334.83;1813730;77;21396;-75
2021/12/23 09:55:25;;;;;;;37.85;23.38;;;;;;;-1.04;86.34;99327.95;1809249;77;21590;-75
2021/12/23 09:57:57;;;;;;;35.38;23.52;;;;;;;-0.99;86.35;99324.94;1819296;77;21998;-74
2021/12/23 10:00:28;;;;;;;32.53;20.45;;;;;;;-0.96;86.30;99322.36;1806534;77;20908;-75
2021/12/23 10:02:56;;;;;;;28.70;20.02;;;;;;;-0.96;86.26;99319.36;1814287;77;22345;-75
2021/12/23 10:05:29;;;;;;;34.80;22.75;;;;;;;-0.85;86.61;99307.75;1791782;77;20926;-74
2021/12/23 10:07:58;;;;;;;55.83;35.60;;;;;;;-0.86;86.36;99304.78;1793764;78;21504;-75
2021/12/23 13:41:30;;;;;;;51.60;30.77;;;;;;;-2.01;85.66;98928.48;1295837;106;21134;-73
2021/12/23 13:44:01;;;;;;;48.30;28.87;;;;;;;-2.08;85.87;98925.96;1408839;98;21165;-73
2021/12/23 13:46:31;;;;;;;43.75;28.83;;;;;;;-2.12;85.79;98914.08;1433790;97;21058;-72
2021/12/23 13:49:05;;;;;;;47.78;29.40;;;;;;;-2.14;85.92;98914.52;1433614;97;21651;-72
2021/12/23 13:51:35;;;;;;;43.20;27.32;;;;;;;-2.15;85.97;98903.87;1436626;98;21040;-73
2021/12/23 13:54:07;;;;;;;42.27;26.23;;;;;;;-2.18;85.94;98891.13;1437563;97;21991;-73
2021/12/23 13:56:36;;;;;;;43.75;27.10;;;;;;;-2.18;85.99;98895.39;1406754;98;21071;-73
2021/12/23 13:59:23;;;;;;;46.42;28.47;;;;;;;-2.18;86.02;98894.11;1433729;97;21648;-73
2021/12/23 14:01:57;;;;;;;38.88;26.10;;;;;;;-2.22;85.99;98891.99;1430476;97;21144;-73
2021/12/23 14:04:38;;;;;;;41.15;26.27;;;;;;;-2.23;85.98;98882.64;1438346;96;20992;-73
2021/12/23 14:07:13;;;;;;;39.40;26.15;;;;;;;-2.22;86.06;98885.60;1415401;97;21560;-73
2021/12/23 14:09:48;;;;;;;37.78;25.20;;;;;;;-2.25;86.07;98885.19;1492520;93;21790;-72
2021/12/23 14:12:21;;;;;;;41.65;26.60;;;;;;;-2.24;86.17;98883.52;1675503;82;20925;-74
2021/12/23 14:15:02;;;;;;;39.23;26.02;;;;;;;-2.26;86.12;98878.83;1772118;77;20958;-73
2021/12/23 14:17:41;;;;;;;42.00;26.10;;;;;;;-2.28;86.08;98869.04;1808582;77;20926;-73
2021/12/23 14:23:15;;;;;;;45.35;27.67;;;;;;;-2.31;86.17;98869.07;1806752;77;21031;-72
2021/12/23 14:26:02;;;;;;;40.55;26.30;;;;;;;-2.29;86.30;98858.41;1807101;77;20965;-72
2021/12/23 14:28:44;;;;;;;38.42;25.43;;;;;;;-2.32;86.18;98848.21;1801366;77;21366;-72
2021/12/23 14:31:25;;;;;;;43.35;26.80;;;;;;;-2.33;86.20;98847.77;1819174;77;20892;-72
2021/12/23 14:34:04;;;;;;;45.33;27.98;;;;;;;-2.37;86.16;98830.78;1807131;77;21976;-71
2021/12/23 14:36:35;;;;;;;44.15;26.80;;;;;;;-2.35;86.38;98839.27;1810981;77;20922;-72
2021/12/23 14:39:07;;;;;;;46.13;26.93;;;;;;;-2.34;86.34;98834.15;1804366;77;20964;-73
2021/12/23 14:41:44;;;;;;;43.75;27.52;;;;;;;-2.36;86.24;98829.91;1806594;77;21005;-72
2021/12/23 14:44:27;;;;;;;48.80;28.10;;;;;;;-2.35;86.42;98829.03;1809968;77;20911;-71
2021/12/23 14:47:15;;;;;;;41.98;24.92;;;;;;;-2.35;86.31;98817.13;1797241;77;21087;-72
2021/12/23 14:52:23;;;;;;;37.20;24.52;;;;;;;-2.45;86.19;98814.66;1787359;77;20922;-72
2021/12/23 14:54:55;;;;;;;38.75;24.32;;;;;;;-2.47;86.34;98800.17;1820856;77;21081;-72
2021/12/23 14:57:33;;;;;;;36.38;24.45;;;;;;;-2.48;86.38;98793.38;1806521;77;20933;-71
2021/12/23 15:00:11;;;;;;;42.70;25.20;;;;;;;-2.45;86.43;98801.45;1807908;77;21843;-73
2021/12/23 15:02:38;;;;;;;36.85;23.80;;;;;;;-2.49;86.35;98789.14;1757273;80;20905;-72
2021/12/23 15:05:18;;;;;;;41.15;25.77;;;;;;;-2.49;86.39;98787.02;1764173;80;20986;-71
2021/12/23 15:07:53;;;;;;;44.83;26.57;;;;;;;-2.52;86.32;98778.95;1785561;78;20951;-70
2021/12/23 15:10:52;;;;;;;46.68;28.02;;;;;;;-2.50;86.51;98777.20;1793312;78;20962;-72
2021/12/23 15:13:36;;;;;;;39.50;26.42;;;;;;;-2.51;86.37;98775.52;1801786;77;21120;-72
2021/12/23 15:16:14;;;;;;;40.52;26.82;;;;;;;-2.56;86.25;98774.70;1791802;77;21466;-71
2021/12/23 15:21:41;;;;;;;45.58;27.70;;;;;;;-2.62;86.34;98756.88;1802152;77;20891;-72
2021/12/23 15:24:29;;;;;;;42.90;24.55;;;;;;;-2.62;86.34;98759.44;1802389;77;21001;-72
2021/12/23 15:27:05;;;;;;;36.28;25.10;;;;;;;-2.61;86.37;98757.28;1814801;77;21162;-72
2021/12/23 15:29:42;;;;;;;43.58;28.23;;;;;;;-2.65;86.25;98748.41;1806684;77;20897;-72
2021/12/23 15:32:16;;;;;;;39.38;24.55;;;;;;;-2.67;86.33;98736.91;1801096;77;20965;-73